createdAt,value
2023-04-05T00:00:10.056Z,52.48
2023-04-05T00:03:34.826Z,52.64
2023-04-05T00:06:40.007Z,52.61
2023-04-05T00:09:43.541Z,52.73
2023-04-05T00:12:46.473Z,52.67
2023-04-05T00:15:50.045Z,52.76
2023-04-05T00:18:53.025Z,52.93
2023-04-05T00:21:56.323Z,53.03
2023-04-05T00:24:59.664Z,52.94
2023-04-05T00:28:02.864Z,52.99
2023-04-05T00:31:06.174Z,53.07
2023-04-05T00:34:10.374Z,53.12
2023-04-05T00:37:13.416Z,53.14
2023-04-05T00:40:16.661Z,53.23
2023-04-05T00:43:19.689Z,53.12
2023-04-05T00:46:23.097Z,53.28
2023-04-05T00:49:26.263Z,53.33
2023-04-05T00:52:30.570Z,53.32
2023-04-05T00:55:34.163Z,53.19
2023-04-05T00:58:37.242Z,53.18
2023-04-05T01:01:41.250Z,53.18
2023-04-05T01:04:51.728Z,53.22
2023-04-05T01:08:04.947Z,53.36
2023-04-05T01:11:09.373Z,53.64
2023-04-05T01:14:12.417Z,53.67
2023-04-05T01:17:16.565Z,53.83
2023-04-05T01:20:21.994Z,53.93
2023-04-05T01:23:38.454Z,53.93
2023-04-05T01:27:16.460Z,53.99
2023-04-05T01:30:30.916Z,54.10
2023-04-05T01:33:33.855Z,54.18
2023-04-05T01:36:56.736Z,54.12
2023-04-05T01:40:00.640Z,54.06
2023-04-05T01:43:12.497Z,54.15
2023-04-05T01:46:15.598Z,54.07
2023-04-05T01:49:19.017Z,54.02
2023-04-05T01:52:22.013Z,53.79
2023-04-05T01:55:25.805Z,53.92
2023-04-05T01:58:29.376Z,53.70
2023-04-05T02:01:32.874Z,53.56
2023-04-05T02:04:35.949Z,53.57
2023-04-05T02:07:38.937Z,53.57
2023-04-05T02:10:42.848Z,53.49
2023-04-05T02:13:46.134Z,53.71
2023-04-05T02:16:49.198Z,53.82
2023-04-05T02:19:53.197Z,53.56
2023-04-05T02:22:56.924Z,53.40
2023-04-05T02:26:00.611Z,53.46
2023-04-05T02:29:03.623Z,53.45
2023-04-05T02:32:06.682Z,53.41
2023-04-05T02:35:10.771Z,53.20
2023-04-05T02:38:13.805Z,53.03
2023-04-05T02:41:16.813Z,52.98
2023-04-05T02:44:19.916Z,52.99
2023-04-05T02:47:22.891Z,53.06
2023-04-05T02:50:31.595Z,52.91
2023-04-05T02:53:35.433Z,52.83
2023-04-05T02:56:41.016Z,52.94
2023-04-05T02:59:47.740Z,53.01
2023-04-05T03:02:51.035Z,52.75
2023-04-05T03:06:09.928Z,52.82
2023-04-05T03:09:18.739Z,52.69
2023-04-05T03:12:22.428Z,52.63
2023-04-05T03:15:25.686Z,52.59
2023-04-05T03:18:29.742Z,52.87
2023-04-05T03:21:37.816Z,52.96
2023-04-05T03:24:46.645Z,53.17
2023-04-05T03:27:52.915Z,53.18
2023-04-05T03:30:57.162Z,53.13
2023-04-05T03:34:00.227Z,53.32
2023-04-05T03:37:06.012Z,53.44
2023-04-05T03:40:19.866Z,53.56
2023-04-05T03:43:23.951Z,53.58
2023-04-05T03:46:27.069Z,53.58
2023-04-05T03:49:30.061Z,53.46
2023-04-05T03:52:32.977Z,53.55
2023-04-05T03:55:36.334Z,53.35
2023-04-05T03:58:40.475Z,53.41
2023-04-05T04:01:44.874Z,53.34
2023-04-05T04:04:48.132Z,53.49
2023-04-05T04:07:51.270Z,53.38
2023-04-05T04:10:54.860Z,53.28
2023-04-05T04:14:00.743Z,53.30
2023-04-05T04:17:33.353Z,53.40
2023-04-05T04:20:52.420Z,53.33
2023-04-05T04:24:10.327Z,53.50
2023-04-05T04:27:26.210Z,53.74
2023-04-05T04:30:49.471Z,53.59
2023-04-05T04:34:14.669Z,53.67
2023-04-05T04:37:31.265Z,53.63
2023-04-05T04:40:54.463Z,53.90
2023-04-05T04:44:08.794Z,53.83
2023-04-05T04:47:21.918Z,53.82
2023-04-05T04:50:40.985Z,54.04
2023-04-05T04:53:43.932Z,54.23
2023-04-05T04:56:47.633Z,54.28
2023-04-05T04:59:50.718Z,54.30
2023-04-05T05:02:53.859Z,54.50
2023-04-05T05:05:57.144Z,54.57
2023-04-05T05:09:06.491Z,54.67
2023-04-05T05:12:13.869Z,54.80
2023-04-05T05:15:16.864Z,54.96
2023-04-05T05:18:19.949Z,54.99
2023-04-05T05:21:22.985Z,55.06
2023-04-05T05:24:34.952Z,55.02
2023-04-05T05:27:37.963Z,54.95
2023-04-05T05:30:41.103Z,55.12
2023-04-05T05:33:47.877Z,55.29
2023-04-05T05:36:52.443Z,55.41
2023-04-05T05:39:55.485Z,55.46
2023-04-05T05:42:58.539Z,55.52
2023-04-05T05:46:02.818Z,55.42
2023-04-05T05:49:06.243Z,55.46
2023-04-05T05:52:09.225Z,55.35
2023-04-05T05:55:12.348Z,55.34
2023-04-05T05:58:15.993Z,55.39
2023-04-05T06:01:23.142Z,55.25
2023-04-05T06:04:26.414Z,54.98
2023-04-05T06:07:29.850Z,54.92
2023-04-05T06:10:33.112Z,54.55
2023-04-05T06:13:37.898Z,54.35
2023-04-05T06:16:41.117Z,54.26
2023-04-05T06:19:44.191Z,54.39
2023-04-05T06:22:47.174Z,54.34
2023-04-05T06:25:50.137Z,54.40
2023-04-05T06:28:54.335Z,54.45
2023-04-05T06:31:57.374Z,54.43
2023-04-05T06:35:03.627Z,54.36
2023-04-05T06:38:06.858Z,54.17
2023-04-05T06:41:10.198Z,54.03
2023-04-05T06:44:13.230Z,54.00
2023-04-05T06:47:16.590Z,54.05
2023-04-05T06:50:19.675Z,53.88
2023-04-05T06:53:22.723Z,53.82
2023-04-05T06:56:25.834Z,53.82
2023-04-05T06:59:30.047Z,53.79
2023-04-05T07:02:35.333Z,53.86
2023-04-05T07:05:39.354Z,53.96
2023-04-05T07:08:44.939Z,53.89
2023-04-05T07:11:50.989Z,53.64
2023-04-05T07:14:54.138Z,53.58
2023-04-05T07:17:57.300Z,53.63
2023-04-05T07:21:00.413Z,53.41
2023-04-05T07:24:03.840Z,53.33
2023-04-05T07:27:07.447Z,52.98
2023-04-05T07:30:10.994Z,52.65
2023-04-05T07:33:14.146Z,52.38
2023-04-05T07:36:23.348Z,51.96
2023-04-05T07:39:26.894Z,51.73
2023-04-05T07:42:32.035Z,51.44
2023-04-05T07:45:35.558Z,51.01
2023-04-05T07:48:38.568Z,50.53
2023-04-05T07:51:43.417Z,49.87
2023-04-05T07:54:46.663Z,49.53
2023-04-05T07:57:49.774Z,49.37
2023-04-05T08:00:53.555Z,49.04
2023-04-05T08:03:59.716Z,48.87
2023-04-05T08:07:03.151Z,48.65
2023-04-05T08:10:06.645Z,48.32
2023-04-05T08:13:09.889Z,48.11
2023-04-05T08:16:13.178Z,47.99
2023-04-05T08:19:16.917Z,47.85
2023-04-05T08:22:21.781Z,47.91
2023-04-05T08:25:24.867Z,47.89
2023-04-05T08:28:28.029Z,47.73
2023-04-05T08:31:31.321Z,47.54
2023-04-05T08:34:34.453Z,47.57
2023-04-05T08:37:37.636Z,47.44
2023-04-05T08:40:44.142Z,47.43
2023-04-05T08:43:59.051Z,47.60
2023-04-05T08:47:02.217Z,47.28
2023-04-05T08:50:05.745Z,47.21
2023-04-05T08:53:11.904Z,47.20
2023-04-05T08:56:25.997Z,46.88
2023-04-05T08:59:29.916Z,46.67
2023-04-05T09:02:33.917Z,46.34
2023-04-05T09:05:39.690Z,45.91
2023-04-05T09:08:43.104Z,45.75
2023-04-05T09:11:46.413Z,45.46
2023-04-05T09:14:50.669Z,45.14
2023-04-05T09:17:55.965Z,44.92
2023-04-05T09:21:04.858Z,45.22
2023-04-05T09:24:07.964Z,45.13
2023-04-05T09:27:18.605Z,44.84
2023-04-05T09:30:28.146Z,44.53
2023-04-05T09:33:31.904Z,44.12
2023-04-05T09:36:35.998Z,44.10
2023-04-05T09:39:39.278Z,43.96
2023-04-05T09:42:48.375Z,44.15
2023-04-05T09:45:52.765Z,43.83
2023-04-05T09:48:57.159Z,43.54
2023-04-05T09:52:02.334Z,43.18
2023-04-05T09:55:09.574Z,42.94
2023-04-05T09:58:14.305Z,42.68
2023-04-05T10:01:17.818Z,42.37
2023-04-05T10:04:22.722Z,42.19
2023-04-05T10:07:26.400Z,42.00
2023-04-05T10:10:46.296Z,42.02
2023-04-05T10:13:54.357Z,41.96
2023-04-05T10:17:23.715Z,41.81
2023-04-05T10:20:29.812Z,41.90
2023-04-05T10:23:44.965Z,42.25
2023-04-05T10:27:06.568Z,42.05
2023-04-05T10:30:18.015Z,42.03
2023-04-05T10:33:31.985Z,41.70
2023-04-05T10:36:58.358Z,41.17
2023-04-05T10:40:04.351Z,40.64
2023-04-05T10:43:16.672Z,40.31
2023-04-05T10:46:22.869Z,40.12
2023-04-05T10:49:46.604Z,39.88
2023-04-05T10:52:51.536Z,40.13
2023-04-05T10:55:56.064Z,40.47
2023-04-05T10:59:00.417Z,40.20
2023-04-05T11:02:04.612Z,40.02
2023-04-05T11:05:32.591Z,39.79
2023-04-05T11:08:42.413Z,39.54
2023-04-05T11:11:50.090Z,39.42
2023-04-05T11:14:53.199Z,39.42
2023-04-05T11:18:22.125Z,39.77
2023-04-05T11:21:26.234Z,39.84
2023-04-05T11:24:57.992Z,39.39
2023-04-05T11:28:01.601Z,39.13
2023-04-05T11:31:23.006Z,38.96
2023-04-05T11:34:26.503Z,38.94
2023-04-05T11:38:00.068Z,38.95
2023-04-05T11:41:20.685Z,39.21
2023-04-05T11:44:26.619Z,38.96
2023-04-05T11:47:29.787Z,39.07
2023-04-05T11:50:33.594Z,38.54
2023-04-05T11:53:37.882Z,38.05
2023-04-05T11:56:42.510Z,37.94
2023-04-05T11:59:45.708Z,37.97
2023-04-05T12:02:48.869Z,37.88
2023-04-05T12:05:54.190Z,38.14
2023-04-05T12:08:57.325Z,38.38
2023-04-05T12:12:00.644Z,38.26
2023-04-05T12:15:05.539Z,38.27
2023-04-05T12:18:15.369Z,38.00
2023-04-05T12:21:18.623Z,37.63
2023-04-05T12:24:24.765Z,37.65
2023-04-05T12:27:28.130Z,37.28
2023-04-05T12:30:36.607Z,37.21
2023-04-05T12:33:41.472Z,37.36
2023-04-05T12:36:46.277Z,37.49
2023-04-05T12:39:49.464Z,37.52
2023-04-05T12:42:52.637Z,37.51
2023-04-05T12:45:56.649Z,37.91
2023-04-05T12:48:59.797Z,37.69
2023-04-05T12:52:03.143Z,37.74
2023-04-05T12:55:15.449Z,37.64
2023-04-05T12:58:20.702Z,37.57
2023-04-05T13:01:23.823Z,37.40
2023-04-05T13:04:27.032Z,36.98
2023-04-05T13:07:30.525Z,36.83
2023-04-05T13:10:33.695Z,36.66
2023-04-05T13:13:36.822Z,36.56
2023-04-05T13:16:40.031Z,36.48
2023-04-05T13:19:43.235Z,36.37
2023-04-05T13:22:47.011Z,36.41
2023-04-05T13:25:50.262Z,36.24
2023-04-05T13:28:53.367Z,36.44
2023-04-05T13:31:56.931Z,36.34
2023-04-05T13:35:00.053Z,36.23
2023-04-05T13:38:04.521Z,36.29
2023-04-05T13:41:08.144Z,36.17
2023-04-05T13:44:11.256Z,35.83
2023-04-05T13:47:15.091Z,35.74
2023-04-05T13:50:18.096Z,35.26
2023-04-05T13:53:21.184Z,35.01
2023-04-05T13:56:24.393Z,34.71
2023-04-05T13:59:27.641Z,34.83
2023-04-05T14:02:33.270Z,34.90
2023-04-05T14:05:36.510Z,34.93
2023-04-05T14:08:39.700Z,35.04
2023-04-05T14:11:42.918Z,37.01
2023-04-05T14:14:46.303Z,35.78
2023-04-05T14:17:49.706Z,35.68
2023-04-05T14:20:53.285Z,35.64
2023-04-05T14:23:58.351Z,35.57
2023-04-05T14:27:02.425Z,35.69
2023-04-05T14:30:06.405Z,35.81
2023-04-05T14:33:09.590Z,35.73
2023-04-05T14:36:12.725Z,35.52
2023-04-05T14:39:16.063Z,35.68
2023-04-05T14:42:19.368Z,35.82
2023-04-05T14:45:27.198Z,36.01
2023-04-05T14:48:31.963Z,36.02
2023-04-05T14:51:35.515Z,36.05
2023-04-05T14:54:38.588Z,36.16
2023-04-05T14:57:42.137Z,36.22
2023-04-05T15:00:45.558Z,36.23
2023-04-05T15:03:52.037Z,36.36
2023-04-05T15:06:56.289Z,36.46
2023-04-05T15:09:59.423Z,36.45
2023-04-05T15:13:02.633Z,36.56
2023-04-05T15:16:05.971Z,36.61
2023-04-05T15:19:09.139Z,36.86
2023-04-05T15:22:12.426Z,36.94
2023-04-05T15:25:15.852Z,36.85
2023-04-05T15:28:19.147Z,36.84
2023-04-05T15:31:22.603Z,36.87
2023-04-05T15:34:27.352Z,36.81
2023-04-05T15:37:30.761Z,36.94
2023-04-05T15:40:34.546Z,36.97
2023-04-05T15:43:39.496Z,37.05
2023-04-05T15:46:42.775Z,37.11
2023-04-05T15:49:47.553Z,37.11
2023-04-05T15:52:55.589Z,37.29
2023-04-05T15:55:58.952Z,37.27
2023-04-05T15:59:02.489Z,37.36
2023-04-05T16:02:06.161Z,37.40
2023-04-05T16:05:09.341Z,37.42
2023-04-05T16:08:12.623Z,37.47
2023-04-05T16:11:15.853Z,37.54
2023-04-05T16:14:18.920Z,37.63
2023-04-05T16:17:22.249Z,37.69
2023-04-05T16:20:25.999Z,37.63
2023-04-05T16:23:29.637Z,37.63
2023-04-05T16:26:33.056Z,37.52
2023-04-05T16:29:36.179Z,37.56
2023-04-05T16:32:39.263Z,37.53
2023-04-05T16:35:42.415Z,37.54
2023-04-05T16:38:47.472Z,37.43
2023-04-05T16:41:50.659Z,37.39
2023-04-05T16:44:53.724Z,37.56
2023-04-05T16:47:56.756Z,37.57
2023-04-05T16:50:59.842Z,37.73
2023-04-05T16:54:03.378Z,38.05
2023-04-05T16:57:06.445Z,38.25
2023-04-05T17:00:10.757Z,38.37
2023-04-05T17:03:13.978Z,38.53
2023-04-05T17:06:17.664Z,38.87
2023-04-05T17:09:21.681Z,39.11
2023-04-05T17:12:24.943Z,39.24
2023-04-05T17:15:28.247Z,39.35
2023-04-05T17:18:31.364Z,39.46
2023-04-05T17:21:35.741Z,39.82
2023-04-05T17:24:38.939Z,39.84
2023-04-05T17:27:42.011Z,39.89
2023-04-05T17:30:45.253Z,40.14
2023-04-05T17:33:48.880Z,40.29
2023-04-05T17:36:52.935Z,40.54
2023-04-05T17:39:56.386Z,40.61
2023-04-05T17:42:59.449Z,41.05
2023-04-05T17:46:03.134Z,41.06
2023-04-05T17:49:06.459Z,41.10
2023-04-05T17:52:09.769Z,41.13
2023-04-05T17:55:12.845Z,41.48
2023-04-05T17:58:15.968Z,41.92
2023-04-05T18:01:19.341Z,42.04
2023-04-05T18:04:25.657Z,42.07
2023-04-05T18:07:28.793Z,42.31
2023-04-05T18:10:31.897Z,42.47
2023-04-05T18:13:35.132Z,42.34
2023-04-05T18:16:38.532Z,42.44
2023-04-05T18:19:41.817Z,42.52
2023-04-05T18:22:44.937Z,42.44
2023-04-05T18:25:48.554Z,42.54
2023-04-05T18:28:57.768Z,42.81
2023-04-05T18:32:01.009Z,43.10
2023-04-05T18:35:04.619Z,43.06
2023-04-05T18:38:07.875Z,43.24
2023-04-05T18:41:12.446Z,43.24
2023-04-05T18:44:16.185Z,43.45
2023-04-05T18:47:19.199Z,43.80
2023-04-05T18:50:22.321Z,44.17
2023-04-05T18:53:25.591Z,44.43
2023-04-05T18:56:28.872Z,44.54
2023-04-05T18:59:32.053Z,44.70
2023-04-05T19:02:35.221Z,44.94
2023-04-05T19:05:38.514Z,44.95
2023-04-05T19:08:42.274Z,45.09
2023-04-05T19:11:45.336Z,45.09
2023-04-05T19:14:48.416Z,45.37
2023-04-05T19:17:51.411Z,45.64
2023-04-05T19:20:59.830Z,45.66
2023-04-05T19:24:03.061Z,45.78
2023-04-05T19:27:06.313Z,45.81
2023-04-05T19:30:09.783Z,45.97
2023-04-05T19:33:13.448Z,46.10
2023-04-05T19:36:16.617Z,46.11
2023-04-05T19:39:25.416Z,46.26
2023-04-05T19:42:28.503Z,46.32
2023-04-05T19:45:32.527Z,46.45
2023-04-05T19:48:35.961Z,46.49
2023-04-05T19:51:39.241Z,46.55
2023-04-05T19:54:43.460Z,46.74
2023-04-05T19:57:47.339Z,46.98
2023-04-05T20:00:54.923Z,47.00
2023-04-05T20:03:59.264Z,47.01
2023-04-05T20:07:03.908Z,47.10
2023-04-05T20:10:20.873Z,47.35
2023-04-05T20:13:24.250Z,47.44
2023-04-05T20:16:33.008Z,47.36
2023-04-05T20:19:41.562Z,47.41
2023-04-05T20:22:44.545Z,47.52
2023-04-05T20:25:48.405Z,47.47
2023-04-05T20:28:55.318Z,47.52
2023-04-05T20:31:58.940Z,47.42
2023-04-05T20:35:02.015Z,47.56
2023-04-05T20:38:05.370Z,47.73
2023-04-05T20:41:10.144Z,47.81
2023-04-05T20:44:13.268Z,47.77
2023-04-05T20:47:16.390Z,47.68
2023-04-05T20:50:19.360Z,47.85
2023-04-05T20:53:22.432Z,48.10
2023-04-05T20:56:25.770Z,48.32
2023-04-05T20:59:29.152Z,48.28
2023-04-05T21:02:32.283Z,48.52
2023-04-05T21:05:35.613Z,48.49
2023-04-05T21:08:39.904Z,48.37
2023-04-05T21:11:42.969Z,48.42
2023-04-05T21:14:46.008Z,48.61
2023-04-05T21:17:49.054Z,48.77
2023-04-05T21:20:53.693Z,48.82
2023-04-05T21:23:56.712Z,48.76
2023-04-05T21:26:59.723Z,48.83
2023-04-05T21:30:03.131Z,48.90
2023-04-05T21:33:06.672Z,48.91
2023-04-05T21:36:09.828Z,49.03
2023-04-05T21:39:12.888Z,49.14
2023-04-05T21:42:16.041Z,49.21
2023-04-05T21:45:19.069Z,49.31
2023-04-05T21:48:24.051Z,49.38
2023-04-05T21:51:27.078Z,49.39
2023-04-05T21:54:30.216Z,49.51
2023-04-05T21:57:36.149Z,49.53
2023-04-05T22:00:39.341Z,49.59
2023-04-05T22:03:42.482Z,49.56
2023-04-05T22:06:45.531Z,49.61
2023-04-05T22:09:48.582Z,49.85
2023-04-05T22:12:51.809Z,49.72
2023-04-05T22:15:54.801Z,49.86
2023-04-05T22:18:58.004Z,49.92
2023-04-05T22:22:01.085Z,49.81
2023-04-05T22:25:04.477Z,49.90
2023-04-05T22:28:07.466Z,49.92
2023-04-05T22:31:10.676Z,50.04
2023-04-05T22:34:13.856Z,50.16
2023-04-05T22:37:16.916Z,50.21
2023-04-05T22:40:20.072Z,50.18
2023-04-05T22:43:24.022Z,50.30
2023-04-05T22:46:27.077Z,50.24
2023-04-05T22:49:30.796Z,50.28
2023-04-05T22:52:33.819Z,50.33
2023-04-05T22:55:39.750Z,50.35
2023-04-05T22:58:42.761Z,50.41
2023-04-05T23:01:45.794Z,50.21
2023-04-05T23:04:48.845Z,50.38
2023-04-05T23:07:52.346Z,50.24
2023-04-05T23:10:55.564Z,50.26
2023-04-05T23:13:58.655Z,50.28
2023-04-05T23:17:01.742Z,50.18
2023-04-05T23:20:06.955Z,50.25
2023-04-05T23:23:10.379Z,50.32
2023-04-05T23:26:13.487Z,50.43
2023-04-05T23:29:18.706Z,50.44
2023-04-05T23:32:21.869Z,50.43
2023-04-05T23:35:24.919Z,50.55
2023-04-05T23:38:27.895Z,50.61
2023-04-05T23:41:31.391Z,50.68
2023-04-05T23:44:34.637Z,50.76
2023-04-05T23:47:38.342Z,50.77
2023-04-05T23:50:41.472Z,50.91
2023-04-05T23:53:44.528Z,50.80
2023-04-05T23:56:48.236Z,50.65
2023-04-05T23:59:52.283Z,50.88
